sensor_id;sensor_type;location;lat;lon;timestamp;P1;durP1;ratioP1;P2;durP2;ratioP2
34505;SDS011;20748;42.632;23.198;2022-07-19T00:02:22;2.83;;;1.63;;
34505;SDS011;20748;42.632;23.198;2022-07-19T00:04:55;1.77;;;1.52;;
34505;SDS011;20748;42.632;23.198;2022-07-19T00:07:28;2.67;;;1.40;;
34505;SDS011;20748;42.632;23.198;2022-07-19T00:10:00;2.80;;;1.63;;
34505;SDS011;20748;42.632;23.198;2022-07-19T00:12:34;1.52;;;0.82;;
34505;SDS011;20748;42.632;23.198;2022-07-19T00:15:08;2.92;;;1.92;;
34505;SDS011;20748;42.632;23.198;2022-07-19T00:17:42;3.15;;;1.83;;
34505;SDS011;20748;42.632;23.198;2022-07-19T00:20:17;3.95;;;1.55;;
34505;SDS011;20748;42.632;23.198;2022-07-19T00:22:51;1.83;;;1.63;;
34505;SDS011;20748;42.632;23.198;2022-07-19T00:25:24;3.90;;;1.42;;
34505;SDS011;20748;42.632;23.198;2022-07-19T00:27:57;3.72;;;1.67;;
34505;SDS011;20748;42.632;23.198;2022-07-19T00:30:29;3.40;;;1.33;;
34505;SDS011;20748;42.632;23.198;2022-07-19T00:33:02;2.70;;;1.58;;
34505;SDS011;20748;42.632;23.198;2022-07-19T00:35:35;3.03;;;1.58;;
34505;SDS011;20748;42.632;23.198;2022-07-19T00:38:09;2.28;;;1.65;;
34505;SDS011;20748;42.632;23.198;2022-07-19T00:40:43;2.72;;;1.80;;
34505;SDS011;20748;42.632;23.198;2022-07-19T00:43:16;2.97;;;1.40;;
34505;SDS011;20748;42.632;23.198;2022-07-19T00:45:48;1.58;;;0.95;;
34505;SDS011;20748;42.632;23.198;2022-07-19T00:48:21;3.10;;;1.73;;
34505;SDS011;20748;42.632;23.198;2022-07-19T00:50:54;3.03;;;1.63;;
34505;SDS011;20748;42.632;23.198;2022-07-19T00:53:26;2.00;;;1.55;;
34505;SDS011;20748;42.632;23.198;2022-07-19T00:55:59;2.50;;;1.60;;
34505;SDS011;20748;42.632;23.198;2022-07-19T00:58:33;4.05;;;1.85;;
34505;SDS011;20748;42.632;23.198;2022-07-19T01:01:07;5.57;;;2.10;;
34505;SDS011;20748;42.632;23.198;2022-07-19T01:03:41;2.25;;;1.48;;
34505;SDS011;20748;42.632;23.198;2022-07-19T01:06:13;2.15;;;1.20;;
34505;SDS011;20748;42.632;23.198;2022-07-19T01:08:46;3.10;;;1.40;;
34505;SDS011;20748;42.632;23.198;2022-07-19T01:11:19;2.08;;;1.33;;
34505;SDS011;20748;42.632;23.198;2022-07-19T01:13:52;3.28;;;1.67;;
34505;SDS011;20748;42.632;23.198;2022-07-19T01:16:24;2.28;;;1.48;;
34505;SDS011;20748;42.632;23.198;2022-07-19T01:18:57;2.05;;;1.40;;
34505;SDS011;20748;42.632;23.198;2022-07-19T01:21:30;2.97;;;1.60;;
34505;SDS011;20748;42.632;23.198;2022-07-19T01:24:03;2.25;;;1.40;;
34505;SDS011;20748;42.632;23.198;2022-07-19T01:26:36;3.45;;;1.52;;
34505;SDS011;20748;42.632;23.198;2022-07-19T01:29:08;2.28;;;1.48;;
34505;SDS011;20748;42.632;23.198;2022-07-19T01:31:46;1.63;;;1.25;;
34505;SDS011;20748;42.632;23.198;2022-07-19T01:34:18;2.13;;;1.40;;
34505;SDS011;20748;42.632;23.198;2022-07-19T01:36:51;1.75;;;1.10;;
34505;SDS011;20748;42.632;23.198;2022-07-19T01:39:24;2.15;;;1.50;;
34505;SDS011;20748;42.632;23.198;2022-07-19T01:41:56;2.78;;;1.77;;
34505;SDS011;20748;42.632;23.198;2022-07-19T01:44:29;3.38;;;1.77;;
34505;SDS011;20748;42.632;23.198;2022-07-19T01:47:01;2.38;;;1.48;;
34505;SDS011;20748;42.632;23.198;2022-07-19T01:49:34;5.95;;;1.55;;
34505;SDS011;20748;42.632;23.198;2022-07-19T01:52:07;2.88;;;1.60;;
34505;SDS011;20748;42.632;23.198;2022-07-19T01:54:39;2.75;;;1.50;;
34505;SDS011;20748;42.632;23.198;2022-07-19T01:57:12;2.97;;;1.45;;
34505;SDS011;20748;42.632;23.198;2022-07-19T01:59:44;3.03;;;1.65;;
34505;SDS011;20748;42.632;23.198;2022-07-19T02:02:17;1.85;;;1.35;;
34505;SDS011;20748;42.632;23.198;2022-07-19T02:04:49;4.18;;;1.42;;
34505;SDS011;20748;42.632;23.198;2022-07-19T02:07:22;2.97;;;1.65;;
34505;SDS011;20748;42.632;23.198;2022-07-19T02:09:55;4.65;;;1.20;;
34505;SDS011;20748;42.632;23.198;2022-07-19T02:12:28;3.45;;;1.90;;
34505;SDS011;20748;42.632;23.198;2022-07-19T02:15:02;1.60;;;1.25;;
34505;SDS011;20748;42.632;23.198;2022-07-19T02:17:35;2.67;;;1.50;;
34505;SDS011;20748;42.632;23.198;2022-07-19T02:20:09;2.22;;;1.20;;
34505;SDS011;20748;42.632;23.198;2022-07-19T02:22:44;2.38;;;1.77;;
34505;SDS011;20748;42.632;23.198;2022-07-19T02:25:17;1.40;;;1.10;;
34505;SDS011;20748;42.632;23.198;2022-07-19T02:27:50;2.40;;;1.40;;
34505;SDS011;20748;42.632;23.198;2022-07-19T02:30:22;2.28;;;1.38;;
34505;SDS011;20748;42.632;23.198;2022-07-19T02:32:55;1.25;;;1.13;;
34505;SDS011;20748;42.632;23.198;2022-07-19T02:35:30;1.60;;;1.25;;
34505;SDS011;20748;42.632;23.198;2022-07-19T02:38:04;1.90;;;1.33;;
34505;SDS011;20748;42.632;23.198;2022-07-19T02:40:36;2.35;;;1.70;;
34505;SDS011;20748;42.632;23.198;2022-07-19T02:43:09;2.53;;;1.35;;
34505;SDS011;20748;42.632;23.198;2022-07-19T02:45:41;3.17;;;1.63;;
34505;SDS011;20748;42.632;23.198;2022-07-19T02:48:14;3.35;;;1.85;;
34505;SDS011;20748;42.632;23.198;2022-07-19T02:50:46;2.55;;;1.65;;
34505;SDS011;20748;42.632;23.198;2022-07-19T02:53:20;3.38;;;1.85;;
34505;SDS011;20748;42.632;23.198;2022-07-19T02:55:52;2.97;;;1.45;;
34505;SDS011;20748;42.632;23.198;2022-07-19T02:58:25;1.48;;;1.20;;
34505;SDS011;20748;42.632;23.198;2022-07-19T03:00:57;2.47;;;1.48;;
34505;SDS011;20748;42.632;23.198;2022-07-19T03:03:30;1.83;;;1.08;;
34505;SDS011;20748;42.632;23.198;2022-07-19T03:06:18;3.40;;;1.92;;
34505;SDS011;20748;42.632;23.198;2022-07-19T03:08:51;1.67;;;1.17;;
34505;SDS011;20748;42.632;23.198;2022-07-19T03:11:24;5.30;;;2.17;;
34505;SDS011;20748;42.632;23.198;2022-07-19T03:13:57;3.65;;;2.25;;
34505;SDS011;20748;42.632;23.198;2022-07-19T03:16:30;3.22;;;1.60;;
34505;SDS011;20748;42.632;23.198;2022-07-19T03:19:03;2.40;;;1.33;;
34505;SDS011;20748;42.632;23.198;2022-07-19T03:21:35;3.70;;;2.20;;
34505;SDS011;20748;42.632;23.198;2022-07-19T03:24:09;5.78;;;1.90;;
34505;SDS011;20748;42.632;23.198;2022-07-19T03:26:42;2.63;;;1.98;;
34505;SDS011;20748;42.632;23.198;2022-07-19T03:29:17;2.30;;;1.42;;
34505;SDS011;20748;42.632;23.198;2022-07-19T03:31:49;1.83;;;1.27;;
34505;SDS011;20748;42.632;23.198;2022-07-19T03:34:22;3.00;;;1.67;;
34505;SDS011;20748;42.632;23.198;2022-07-19T03:36:54;2.80;;;1.63;;
34505;SDS011;20748;42.632;23.198;2022-07-19T03:39:28;2.72;;;1.67;;
34505;SDS011;20748;42.632;23.198;2022-07-19T03:42:00;2.92;;;1.90;;
34505;SDS011;20748;42.632;23.198;2022-07-19T03:44:33;2.65;;;1.42;;
34505;SDS011;20748;42.632;23.198;2022-07-19T03:47:05;2.85;;;1.60;;
34505;SDS011;20748;42.632;23.198;2022-07-19T03:49:38;2.33;;;1.15;;
34505;SDS011;20748;42.632;23.198;2022-07-19T03:52:10;2.28;;;1.70;;
34505;SDS011;20748;42.632;23.198;2022-07-19T03:54:50;2.53;;;1.47;;
34505;SDS011;20748;42.632;23.198;2022-07-19T03:57:22;3.17;;;1.95;;
34505;SDS011;20748;42.632;23.198;2022-07-19T03:59:55;2.97;;;1.90;;
34505;SDS011;20748;42.632;23.198;2022-07-19T04:02:27;3.17;;;1.42;;
34505;SDS011;20748;42.632;23.198;2022-07-19T04:05:00;3.08;;;1.67;;
34505;SDS011;20748;42.632;23.198;2022-07-19T04:07:32;2.67;;;1.77;;
34505;SDS011;20748;42.632;23.198;2022-07-19T04:10:06;4.00;;;2.40;;
34505;SDS011;20748;42.632;23.198;2022-07-19T04:12:39;3.20;;;2.10;;
34505;SDS011;20748;42.632;23.198;2022-07-19T04:15:12;3.80;;;1.90;;
34505;SDS011;20748;42.632;23.198;2022-07-19T04:17:44;3.25;;;1.60;;
34505;SDS011;20748;42.632;23.198;2022-07-19T04:20:17;2.50;;;1.45;;
34505;SDS011;20748;42.632;23.198;2022-07-19T04:22:49;6.43;;;3.92;;
34505;SDS011;20748;42.632;23.198;2022-07-19T04:25:22;5.55;;;3.40;;
34505;SDS011;20748;42.632;23.198;2022-07-19T04:27:55;2.30;;;1.77;;
34505;SDS011;20748;42.632;23.198;2022-07-19T04:30:27;3.15;;;2.15;;
34505;SDS011;20748;42.632;23.198;2022-07-19T04:33:00;2.42;;;2.00;;
34505;SDS011;20748;42.632;23.198;2022-07-19T04:35:32;4.10;;;2.03;;
34505;SDS011;20748;42.632;23.198;2022-07-19T04:38:05;3.22;;;2.15;;
34505;SDS011;20748;42.632;23.198;2022-07-19T04:40:38;3.47;;;2.40;;
34505;SDS011;20748;42.632;23.198;2022-07-19T04:43:10;3.42;;;2.00;;
34505;SDS011;20748;42.632;23.198;2022-07-19T04:45:43;4.07;;;2.03;;
34505;SDS011;20748;42.632;23.198;2022-07-19T04:48:16;6.68;;;2.35;;
34505;SDS011;20748;42.632;23.198;2022-07-19T04:50:48;3.70;;;2.13;;
34505;SDS011;20748;42.632;23.198;2022-07-19T04:53:20;2.90;;;1.98;;
34505;SDS011;20748;42.632;23.198;2022-07-19T04:55:53;3.22;;;2.15;;
34505;SDS011;20748;42.632;23.198;2022-07-19T04:58:26;4.38;;;2.28;;
34505;SDS011;20748;42.632;23.198;2022-07-19T05:00:58;4.32;;;2.88;;
34505;SDS011;20748;42.632;23.198;2022-07-19T05:03:31;5.20;;;2.45;;
34505;SDS011;20748;42.632;23.198;2022-07-19T05:06:03;4.60;;;2.45;;
34505;SDS011;20748;42.632;23.198;2022-07-19T05:08:36;4.25;;;2.90;;
34505;SDS011;20748;42.632;23.198;2022-07-19T05:11:09;5.65;;;3.67;;
34505;SDS011;20748;42.632;23.198;2022-07-19T05:13:41;5.78;;;2.85;;
34505;SDS011;20748;42.632;23.198;2022-07-19T05:16:14;2.20;;;1.77;;
34505;SDS011;20748;42.632;23.198;2022-07-19T05:18:46;4.18;;;2.85;;
34505;SDS011;20748;42.632;23.198;2022-07-19T05:21:19;6.13;;;2.97;;
34505;SDS011;20748;42.632;23.198;2022-07-19T05:23:51;4.57;;;2.97;;
34505;SDS011;20748;42.632;23.198;2022-07-19T05:26:24;5.03;;;2.35;;
34505;SDS011;20748;42.632;23.198;2022-07-19T05:28:57;2.47;;;1.40;;
34505;SDS011;20748;42.632;23.198;2022-07-19T05:31:29;3.45;;;1.70;;
34505;SDS011;20748;42.632;23.198;2022-07-19T05:34:02;1.98;;;1.50;;
34505;SDS011;20748;42.632;23.198;2022-07-19T05:36:34;3.08;;;1.80;;
34505;SDS011;20748;42.632;23.198;2022-07-19T05:39:07;3.30;;;1.77;;
34505;SDS011;20748;42.632;23.198;2022-07-19T05:41:40;1.77;;;1.23;;
34505;SDS011;20748;42.632;23.198;2022-07-19T05:44:13;2.17;;;1.52;;
34505;SDS011;20748;42.632;23.198;2022-07-19T05:46:46;2.55;;;1.63;;
34505;SDS011;20748;42.632;23.198;2022-07-19T05:49:18;2.78;;;1.98;;
34505;SDS011;20748;42.632;23.198;2022-07-19T05:51:51;1.55;;;1.10;;
34505;SDS011;20748;42.632;23.198;2022-07-19T05:54:23;4.72;;;1.45;;
34505;SDS011;20748;42.632;23.198;2022-07-19T05:56:56;3.38;;;1.60;;
34505;SDS011;20748;42.632;23.198;2022-07-19T05:59:29;2.45;;;1.33;;
34505;SDS011;20748;42.632;23.198;2022-07-19T06:02:01;2.60;;;1.75;;
34505;SDS011;20748;42.632;23.198;2022-07-19T06:04:34;2.65;;;1.10;;
34505;SDS011;20748;42.632;23.198;2022-07-19T06:07:06;1.88;;;1.30;;
34505;SDS011;20748;42.632;23.198;2022-07-19T06:09:39;2.75;;;1.58;;
34505;SDS011;20748;42.632;23.198;2022-07-19T06:12:12;3.03;;;1.25;;
34505;SDS011;20748;42.632;23.198;2022-07-19T06:14:44;2.72;;;1.50;;
34505;SDS011;20748;42.632;23.198;2022-07-19T06:17:17;2.10;;;1.10;;
34505;SDS011;20748;42.632;23.198;2022-07-19T06:19:49;2.25;;;1.55;;
34505;SDS011;20748;42.632;23.198;2022-07-19T06:22:22;2.28;;;1.35;;
34505;SDS011;20748;42.632;23.198;2022-07-19T06:24:55;2.10;;;1.33;;
34505;SDS011;20748;42.632;23.198;2022-07-19T06:27:28;2.35;;;1.58;;
34505;SDS011;20748;42.632;23.198;2022-07-19T06:30:00;2.08;;;1.20;;
34505;SDS011;20748;42.632;23.198;2022-07-19T06:32:34;2.20;;;1.10;;
34505;SDS011;20748;42.632;23.198;2022-07-19T06:35:06;3.33;;;2.47;;
34505;SDS011;20748;42.632;23.198;2022-07-19T06:37:40;2.83;;;1.33;;
34505;SDS011;20748;42.632;23.198;2022-07-19T06:40:12;1.75;;;1.20;;
34505;SDS011;20748;42.632;23.198;2022-07-19T06:42:46;2.17;;;1.45;;
34505;SDS011;20748;42.632;23.198;2022-07-19T06:45:18;4.70;;;1.27;;
34505;SDS011;20748;42.632;23.198;2022-07-19T06:47:50;1.77;;;1.40;;
34505;SDS011;20748;42.632;23.198;2022-07-19T06:50:23;2.22;;;1.20;;
34505;SDS011;20748;42.632;23.198;2022-07-19T06:53:13;1.92;;;1.38;;
34505;SDS011;20748;42.632;23.198;2022-07-19T06:55:46;1.48;;;1.10;;
34505;SDS011;20748;42.632;23.198;2022-07-19T06:58:19;1.40;;;0.90;;
34505;SDS011;20748;42.632;23.198;2022-07-19T07:00:51;2.47;;;1.10;;
34505;SDS011;20748;42.632;23.198;2022-07-19T07:03:24;2.17;;;1.70;;
34505;SDS011;20748;42.632;23.198;2022-07-19T07:05:56;1.73;;;1.00;;
34505;SDS011;20748;42.632;23.198;2022-07-19T07:08:29;1.88;;;1.50;;
34505;SDS011;20748;42.632;23.198;2022-07-19T07:11:01;2.63;;;1.48;;
34505;SDS011;20748;42.632;23.198;2022-07-19T07:13:35;2.08;;;0.98;;
34505;SDS011;20748;42.632;23.198;2022-07-19T07:16:07;2.22;;;1.10;;
34505;SDS011;20748;42.632;23.198;2022-07-19T07:18:40;1.70;;;1.20;;
34505;SDS011;20748;42.632;23.198;2022-07-19T07:21:13;1.60;;;0.98;;
34505;SDS011;20748;42.632;23.198;2022-07-19T07:23:45;1.90;;;1.50;;
34505;SDS011;20748;42.632;23.198;2022-07-19T07:26:18;1.90;;;1.20;;
34505;SDS011;20748;42.632;23.198;2022-07-19T07:28:52;2.20;;;1.05;;
34505;SDS011;20748;42.632;23.198;2022-07-19T07:31:24;1.92;;;1.13;;
34505;SDS011;20748;42.632;23.198;2022-07-19T07:33:57;3.33;;;1.73;;
34505;SDS011;20748;42.632;23.198;2022-07-19T07:36:29;2.67;;;1.48;;
34505;SDS011;20748;42.632;23.198;2022-07-19T07:39:02;2.53;;;1.38;;
34505;SDS011;20748;42.632;23.198;2022-07-19T07:41:35;2.30;;;1.20;;
34505;SDS011;20748;42.632;23.198;2022-07-19T07:44:27;2.25;;;1.95;;
34505;SDS011;20748;42.632;23.198;2022-07-19T07:47:00;1.08;;;0.65;;
34505;SDS011;20748;42.632;23.198;2022-07-19T07:49:32;1.85;;;0.93;;
34505;SDS011;20748;42.632;23.198;2022-07-19T07:52:05;1.98;;;1.05;;
34505;SDS011;20748;42.632;23.198;2022-07-19T07:54:38;1.52;;;0.98;;
34505;SDS011;20748;42.632;23.198;2022-07-19T07:57:31;1.63;;;0.82;;
34505;SDS011;20748;42.632;23.198;2022-07-19T08:00:05;1.70;;;0.80;;
34505;SDS011;20748;42.632;23.198;2022-07-19T08:02:43;1.17;;;0.98;;
34505;SDS011;20748;42.632;23.198;2022-07-19T08:05:19;0.93;;;0.70;;
34505;SDS011;20748;42.632;23.198;2022-07-19T08:07:53;0.88;;;0.70;;
34505;SDS011;20748;42.632;23.198;2022-07-19T08:10:26;0.95;;;0.75;;
34505;SDS011;20748;42.632;23.198;2022-07-19T08:13:02;2.22;;;1.40;;
34505;SDS011;20748;42.632;23.198;2022-07-19T08:15:40;1.70;;;0.90;;
34505;SDS011;20748;42.632;23.198;2022-07-19T08:18:12;1.77;;;0.98;;
34505;SDS011;20748;42.632;23.198;2022-07-19T08:20:45;1.00;;;0.60;;
34505;SDS011;20748;42.632;23.198;2022-07-19T08:23:17;2.13;;;1.25;;
34505;SDS011;20748;42.632;23.198;2022-07-19T08:25:50;1.50;;;1.00;;
34505;SDS011;20748;42.632;23.198;2022-07-19T08:28:22;1.10;;;0.60;;
34505;SDS011;20748;42.632;23.198;2022-07-19T08:30:55;1.05;;;0.75;;
34505;SDS011;20748;42.632;23.198;2022-07-19T08:33:44;2.83;;;1.05;;
34505;SDS011;20748;42.632;23.198;2022-07-19T08:36:17;1.65;;;1.05;;
34505;SDS011;20748;42.632;23.198;2022-07-19T08:38:49;1.73;;;0.98;;
34505;SDS011;20748;42.632;23.198;2022-07-19T08:41:21;1.20;;;0.77;;
34505;SDS011;20748;42.632;23.198;2022-07-19T08:43:54;1.45;;;1.00;;
34505;SDS011;20748;42.632;23.198;2022-07-19T08:46:28;0.95;;;0.77;;
34505;SDS011;20748;42.632;23.198;2022-07-19T08:49:01;2.33;;;1.00;;
34505;SDS011;20748;42.632;23.198;2022-07-19T08:51:34;0.93;;;0.80;;
34505;SDS011;20748;42.632;23.198;2022-07-19T08:54:07;2.28;;;1.02;;
34505;SDS011;20748;42.632;23.198;2022-07-19T08:56:40;1.70;;;0.93;;
34505;SDS011;20748;42.632;23.198;2022-07-19T08:59:31;1.88;;;1.08;;
34505;SDS011;20748;42.632;23.198;2022-07-19T09:02:04;1.92;;;1.05;;
34505;SDS011;20748;42.632;23.198;2022-07-19T09:04:37;2.53;;;1.00;;
34505;SDS011;20748;42.632;23.198;2022-07-19T09:07:09;1.60;;;0.90;;
34505;SDS011;20748;42.632;23.198;2022-07-19T09:09:42;1.65;;;1.00;;
34505;SDS011;20748;42.632;23.198;2022-07-19T09:12:14;0.65;;;0.50;;
34505;SDS011;20748;42.632;23.198;2022-07-19T09:14:52;1.33;;;1.00;;
34505;SDS011;20748;42.632;23.198;2022-07-19T09:17:26;1.90;;;0.77;;
34505;SDS011;20748;42.632;23.198;2022-07-19T09:20:01;1.60;;;0.88;;
34505;SDS011;20748;42.632;23.198;2022-07-19T09:22:33;0.63;;;0.63;;
34505;SDS011;20748;42.632;23.198;2022-07-19T09:25:07;1.98;;;1.10;;
34505;SDS011;20748;42.632;23.198;2022-07-19T09:27:39;2.38;;;1.40;;
34505;SDS011;20748;42.632;23.198;2022-07-19T09:30:32;1.30;;;0.90;;
34505;SDS011;20748;42.632;23.198;2022-07-19T09:33:17;1.45;;;0.95;;
34505;SDS011;20748;42.632;23.198;2022-07-19T09:35:51;1.42;;;0.95;;
34505;SDS011;20748;42.632;23.198;2022-07-19T09:38:25;2.58;;;1.10;;
34505;SDS011;20748;42.632;23.198;2022-07-19T09:41:09;3.22;;;0.93;;
34505;SDS011;20748;42.632;23.198;2022-07-19T09:43:52;2.05;;;1.00;;
34505;SDS011;20748;42.632;23.198;2022-07-19T09:46:29;2.22;;;1.45;;
34505;SDS011;20748;42.632;23.198;2022-07-19T09:49:04;1.23;;;1.00;;
34505;SDS011;20748;42.632;23.198;2022-07-19T09:51:38;1.77;;;1.05;;
34505;SDS011;20748;42.632;23.198;2022-07-19T09:54:14;1.70;;;0.90;;
34505;SDS011;20748;42.632;23.198;2022-07-19T09:56:48;2.95;;;1.55;;
34505;SDS011;20748;42.632;23.198;2022-07-19T09:59:22;1.83;;;0.93;;
34505;SDS011;20748;42.632;23.198;2022-07-19T10:01:55;1.67;;;0.82;;
34505;SDS011;20748;42.632;23.198;2022-07-19T10:04:30;1.20;;;1.00;;
34505;SDS011;20748;42.632;23.198;2022-07-19T10:07:04;1.63;;;0.77;;
34505;SDS011;20748;42.632;23.198;2022-07-19T10:09:37;1.75;;;0.70;;
34505;SDS011;20748;42.632;23.198;2022-07-19T10:12:10;2.13;;;1.00;;
34505;SDS011;20748;42.632;23.198;2022-07-19T10:14:42;1.25;;;0.80;;
34505;SDS011;20748;42.632;23.198;2022-07-19T10:17:18;1.10;;;0.88;;
34505;SDS011;20748;42.632;23.198;2022-07-19T10:20:01;1.58;;;1.02;;
34505;SDS011;20748;42.632;23.198;2022-07-19T10:22:35;0.82;;;0.68;;
34505;SDS011;20748;42.632;23.198;2022-07-19T10:25:12;2.20;;;1.48;;
34505;SDS011;20748;42.632;23.198;2022-07-19T10:27:46;2.55;;;2.05;;
34505;SDS011;20748;42.632;23.198;2022-07-19T10:30:23;1.25;;;0.98;;
34505;SDS011;20748;42.632;23.198;2022-07-19T10:32:57;1.40;;;0.80;;
34505;SDS011;20748;42.632;23.198;2022-07-19T10:35:30;0.73;;;0.73;;
34505;SDS011;20748;42.632;23.198;2022-07-19T10:38:06;2.28;;;1.27;;
34505;SDS011;20748;42.632;23.198;2022-07-19T10:40:42;2.17;;;0.88;;
34505;SDS011;20748;42.632;23.198;2022-07-19T10:43:16;1.35;;;1.10;;
34505;SDS011;20748;42.632;23.198;2022-07-19T10:46:07;1.58;;;1.00;;
34505;SDS011;20748;42.632;23.198;2022-07-19T10:48:41;1.85;;;1.02;;
34505;SDS011;20748;42.632;23.198;2022-07-19T10:51:27;1.25;;;0.98;;
34505;SDS011;20748;42.632;23.198;2022-07-19T10:54:02;0.95;;;0.85;;
34505;SDS011;20748;42.632;23.198;2022-07-19T10:56:41;1.88;;;0.98;;
34505;SDS011;20748;42.632;23.198;2022-07-19T10:59:30;1.50;;;1.00;;
34505;SDS011;20748;42.632;23.198;2022-07-19T11:02:04;1.10;;;0.90;;
34505;SDS011;20748;42.632;23.198;2022-07-19T11:04:57;1.50;;;1.13;;
34505;SDS011;20748;42.632;23.198;2022-07-19T11:07:30;1.33;;;1.00;;
34505;SDS011;20748;42.632;23.198;2022-07-19T11:10:03;1.38;;;1.10;;
34505;SDS011;20748;42.632;23.198;2022-07-19T11:12:36;1.80;;;1.08;;
34505;SDS011;20748;42.632;23.198;2022-07-19T11:15:09;1.50;;;1.10;;
34505;SDS011;20748;42.632;23.198;2022-07-19T11:17:52;2.38;;;1.55;;
34505;SDS011;20748;42.632;23.198;2022-07-19T11:20:25;3.58;;;1.55;;
34505;SDS011;20748;42.632;23.198;2022-07-19T11:23:00;1.90;;;1.50;;
34505;SDS011;20748;42.632;23.198;2022-07-19T11:25:36;1.90;;;1.23;;
34505;SDS011;20748;42.632;23.198;2022-07-19T11:28:19;1.27;;;1.10;;
34505;SDS011;20748;42.632;23.198;2022-07-19T11:30:52;2.90;;;1.10;;
34505;SDS011;20748;42.632;23.198;2022-07-19T11:33:24;1.58;;;1.00;;
34505;SDS011;20748;42.632;23.198;2022-07-19T11:35:57;1.58;;;0.98;;
34505;SDS011;20748;42.632;23.198;2022-07-19T11:38:36;2.05;;;1.17;;
34505;SDS011;20748;42.632;23.198;2022-07-19T11:41:13;3.03;;;1.93;;
34505;SDS011;20748;42.632;23.198;2022-07-19T11:43:51;1.05;;;0.80;;
34505;SDS011;20748;42.632;23.198;2022-07-19T11:46:24;1.70;;;1.20;;
34505;SDS011;20748;42.632;23.198;2022-07-19T11:48:59;1.75;;;1.15;;
34505;SDS011;20748;42.632;23.198;2022-07-19T11:51:34;1.58;;;1.30;;
34505;SDS011;20748;42.632;23.198;2022-07-19T11:54:08;1.85;;;1.63;;
34505;SDS011;20748;42.632;23.198;2022-07-19T11:56:42;1.88;;;1.20;;
34505;SDS011;20748;42.632;23.198;2022-07-19T11:59:16;1.58;;;1.13;;
34505;SDS011;20748;42.632;23.198;2022-07-19T12:01:54;2.05;;;1.20;;
34505;SDS011;20748;42.632;23.198;2022-07-19T12:04:35;1.48;;;1.02;;
34505;SDS011;20748;42.632;23.198;2022-07-19T12:07:08;1.55;;;1.13;;
34505;SDS011;20748;42.632;23.198;2022-07-19T12:09:42;2.00;;;1.00;;
34505;SDS011;20748;42.632;23.198;2022-07-19T12:12:15;1.92;;;1.27;;
34505;SDS011;20748;42.632;23.198;2022-07-19T12:14:48;1.52;;;1.30;;
34505;SDS011;20748;42.632;23.198;2022-07-19T12:17:21;1.67;;;1.13;;
34505;SDS011;20748;42.632;23.198;2022-07-19T12:20:06;1.30;;;0.95;;
34505;SDS011;20748;42.632;23.198;2022-07-19T12:23:10;0.93;;;0.70;;
34505;SDS011;20748;42.632;23.198;2022-07-19T12:25:45;1.80;;;1.20;;
34505;SDS011;20748;42.632;23.198;2022-07-19T12:28:24;1.58;;;1.45;;
34505;SDS011;20748;42.632;23.198;2022-07-19T12:31:01;1.73;;;0.80;;
34505;SDS011;20748;42.632;23.198;2022-07-19T12:33:34;1.48;;;1.15;;
34505;SDS011;20748;42.632;23.198;2022-07-19T12:36:08;1.92;;;1.05;;
34505;SDS011;20748;42.632;23.198;2022-07-19T12:38:41;1.48;;;1.00;;
34505;SDS011;20748;42.632;23.198;2022-07-19T12:41:15;1.45;;;1.10;;
34505;SDS011;20748;42.632;23.198;2022-07-19T12:43:47;0.75;;;0.75;;
34505;SDS011;20748;42.632;23.198;2022-07-19T12:46:20;1.40;;;0.60;;
34505;SDS011;20748;42.632;23.198;2022-07-19T12:48:52;1.00;;;0.90;;
34505;SDS011;20748;42.632;23.198;2022-07-19T12:51:25;1.38;;;0.90;;
34505;SDS011;20748;42.632;23.198;2022-07-19T12:53:57;1.30;;;0.88;;
34505;SDS011;20748;42.632;23.198;2022-07-19T12:56:30;1.08;;;0.90;;
34505;SDS011;20748;42.632;23.198;2022-07-19T12:59:03;1.50;;;0.90;;
34505;SDS011;20748;42.632;23.198;2022-07-19T13:01:54;1.52;;;1.10;;
34505;SDS011;20748;42.632;23.198;2022-07-19T13:04:26;1.48;;;0.70;;
34505;SDS011;20748;42.632;23.198;2022-07-19T13:06:59;1.25;;;0.90;;
34505;SDS011;20748;42.632;23.198;2022-07-19T13:09:31;3.22;;;1.20;;
34505;SDS011;20748;42.632;23.198;2022-07-19T13:12:05;1.48;;;0.95;;
34505;SDS011;20748;42.632;23.198;2022-07-19T13:14:39;1.83;;;0.90;;
34505;SDS011;20748;42.632;23.198;2022-07-19T13:17:11;1.40;;;1.00;;
34505;SDS011;20748;42.632;23.198;2022-07-19T13:19:44;3.90;;;1.08;;
34505;SDS011;20748;42.632;23.198;2022-07-19T13:22:16;0.82;;;0.80;;
34505;SDS011;20748;42.632;23.198;2022-07-19T13:24:50;1.67;;;1.40;;
34505;SDS011;20748;42.632;23.198;2022-07-19T13:27:43;2.08;;;1.00;;
34505;SDS011;20748;42.632;23.198;2022-07-19T13:30:15;1.35;;;0.98;;
34505;SDS011;20748;42.632;23.198;2022-07-19T13:32:48;1.38;;;0.98;;
34505;SDS011;20748;42.632;23.198;2022-07-19T13:35:21;1.17;;;0.90;;
34505;SDS011;20748;42.632;23.198;2022-07-19T13:37:54;1.35;;;1.10;;
34505;SDS011;20748;42.632;23.198;2022-07-19T13:40:27;1.35;;;1.23;;
34505;SDS011;20748;42.632;23.198;2022-07-19T13:43:00;1.15;;;1.00;;
34505;SDS011;20748;42.632;23.198;2022-07-19T13:45:32;1.88;;;1.10;;
34505;SDS011;20748;42.632;23.198;2022-07-19T13:48:05;3.85;;;1.00;;
34505;SDS011;20748;42.632;23.198;2022-07-19T13:50:37;2.00;;;0.80;;
34505;SDS011;20748;42.632;23.198;2022-07-19T13:53:10;2.13;;;1.52;;
34505;SDS011;20748;42.632;23.198;2022-07-19T13:55:42;2.08;;;1.15;;
34505;SDS011;20748;42.632;23.198;2022-07-19T13:58:16;2.08;;;1.10;;
34505;SDS011;20748;42.632;23.198;2022-07-19T14:00:48;1.38;;;0.77;;
34505;SDS011;20748;42.632;23.198;2022-07-19T14:03:21;1.95;;;0.80;;
34505;SDS011;20748;42.632;23.198;2022-07-19T14:05:55;1.65;;;0.95;;
34505;SDS011;20748;42.632;23.198;2022-07-19T14:08:27;1.60;;;0.80;;
34505;SDS011;20748;42.632;23.198;2022-07-19T14:11:00;1.00;;;0.90;;
34505;SDS011;20748;42.632;23.198;2022-07-19T14:13:34;1.40;;;1.20;;
34505;SDS011;20748;42.632;23.198;2022-07-19T14:16:07;1.52;;;1.10;;
34505;SDS011;20748;42.632;23.198;2022-07-19T14:18:39;1.13;;;0.80;;
34505;SDS011;20748;42.632;23.198;2022-07-19T14:21:12;1.58;;;0.82;;
34505;SDS011;20748;42.632;23.198;2022-07-19T14:23:45;2.28;;;1.30;;
34505;SDS011;20748;42.632;23.198;2022-07-19T14:26:17;0.95;;;0.77;;
34505;SDS011;20748;42.632;23.198;2022-07-19T14:28:50;1.20;;;1.02;;
34505;SDS011;20748;42.632;23.198;2022-07-19T14:31:23;1.55;;;0.88;;
34505;SDS011;20748;42.632;23.198;2022-07-19T14:33:56;1.48;;;0.95;;
34505;SDS011;20748;42.632;23.198;2022-07-19T14:36:48;0.82;;;0.70;;
34505;SDS011;20748;42.632;23.198;2022-07-19T14:39:21;1.00;;;0.80;;
34505;SDS011;20748;42.632;23.198;2022-07-19T14:41:54;1.70;;;0.98;;
34505;SDS011;20748;42.632;23.198;2022-07-19T14:44:27;1.17;;;0.70;;
34505;SDS011;20748;42.632;23.198;2022-07-19T14:47:00;1.10;;;0.60;;
34505;SDS011;20748;42.632;23.198;2022-07-19T14:49:33;1.08;;;0.70;;
34505;SDS011;20748;42.632;23.198;2022-07-19T14:52:06;1.45;;;0.90;;
34505;SDS011;20748;42.632;23.198;2022-07-19T14:54:39;1.92;;;0.90;;
34505;SDS011;20748;42.632;23.198;2022-07-19T14:57:11;1.50;;;1.00;;
34505;SDS011;20748;42.632;23.198;2022-07-19T14:59:45;1.67;;;0.63;;
34505;SDS011;20748;42.632;23.198;2022-07-19T15:02:21;1.42;;;1.10;;
34505;SDS011;20748;42.632;23.198;2022-07-19T15:04:53;1.92;;;0.98;;
34505;SDS011;20748;42.632;23.198;2022-07-19T15:07:28;1.02;;;0.90;;
34505;SDS011;20748;42.632;23.198;2022-07-19T15:10:00;2.55;;;1.10;;
34505;SDS011;20748;42.632;23.198;2022-07-19T15:12:33;0.85;;;0.80;;
34505;SDS011;20748;42.632;23.198;2022-07-19T15:15:06;1.35;;;0.90;;